createdAt,value
2023-05-21T00:02:17.673Z,14.47
2023-05-21T00:04:45.133Z,15.63
2023-05-21T00:07:12.855Z,16.80
2023-05-21T00:09:39.784Z,17.03
2023-05-21T00:12:08.150Z,16.33
2023-05-21T00:14:35.499Z,15.10
2023-05-21T00:17:02.286Z,18.17
2023-05-21T00:19:29.833Z,18.63
2023-05-21T00:21:57.778Z,14.93
2023-05-21T00:24:24.655Z,13.63
2023-05-21T00:26:51.442Z,14.37
2023-05-21T00:29:18.428Z,12.87
2023-05-21T00:31:45.382Z,13.20
2023-05-21T00:34:13.567Z,16.23
2023-05-21T00:36:40.839Z,16.23
2023-05-21T00:39:09.127Z,18.63
2023-05-21T00:41:36.110Z,12.80
2023-05-21T00:44:03.425Z,15.90
2023-05-21T00:46:30.618Z,13.60
2023-05-21T00:48:58.575Z,11.83
2023-05-21T00:51:26.033Z,12.67
2023-05-21T00:53:53.308Z,17.07
2023-05-21T00:56:22.863Z,12.10
2023-05-21T00:58:53.654Z,11.93
2023-05-21T01:01:20.870Z,14.10
2023-05-21T01:03:48.906Z,15.23
2023-05-21T01:06:16.341Z,13.67
2023-05-21T01:08:44.272Z,13.83
2023-05-21T01:11:11.527Z,16.87
2023-05-21T01:13:39.782Z,16.47
2023-05-21T01:16:08.918Z,16.30
2023-05-21T01:18:38.239Z,11.30
2023-05-21T01:21:05.617Z,11.93
2023-05-21T01:23:32.553Z,15.37
2023-05-21T01:25:59.415Z,19.17
2023-05-21T01:28:26.243Z,14.40
2023-05-21T01:30:53.375Z,14.17
2023-05-21T01:33:26.192Z,13.33
2023-05-21T01:36:05.643Z,14.70
2023-05-21T01:38:43.265Z,15.43
2023-05-21T01:41:13.806Z,13.10
2023-05-21T01:43:42.233Z,18.10
2023-05-21T01:46:10.582Z,16.57
2023-05-21T01:48:38.181Z,17.87
2023-05-21T01:51:06.607Z,13.17
2023-05-21T01:53:33.572Z,15.80
2023-05-21T01:56:00.975Z,17.37
2023-05-21T01:58:27.951Z,14.80
2023-05-21T02:00:54.842Z,17.23
2023-05-21T02:03:22.133Z,14.90
2023-05-21T02:05:49.163Z,13.97
2023-05-21T02:08:15.986Z,15.90
2023-05-21T02:10:42.870Z,13.20
2023-05-21T02:13:10.394Z,17.87
2023-05-21T02:15:39.066Z,15.70
2023-05-21T02:18:06.191Z,18.53
2023-05-21T02:20:33.531Z,16.07
2023-05-21T02:23:00.560Z,14.90
2023-05-21T02:25:27.362Z,15.43
2023-05-21T02:27:56.938Z,15.07
2023-05-21T02:30:23.864Z,13.80
2023-05-21T02:32:53.947Z,17.03
2023-05-21T02:35:21.779Z,13.07
2023-05-21T02:37:49.152Z,12.33
2023-05-21T02:40:16.035Z,16.23
2023-05-21T02:42:43.088Z,11.67
2023-05-21T02:45:14.584Z,13.57
2023-05-21T02:47:43.302Z,15.67
2023-05-21T02:50:10.346Z,10.70
2023-05-21T02:52:45.967Z,12.17
2023-05-21T02:55:12.833Z,11.83
2023-05-21T02:57:39.729Z,11.63
2023-05-21T03:00:08.561Z,14.27
2023-05-21T03:02:36.435Z,14.57
2023-05-21T03:05:03.803Z,15.77
2023-05-21T03:07:30.872Z,14.47
2023-05-21T03:09:57.841Z,16.67
2023-05-21T03:12:24.803Z,13.30
2023-05-21T03:14:51.596Z,13.43
2023-05-21T03:17:20.784Z,10.43
2023-05-21T03:19:49.318Z,12.13
2023-05-21T03:22:16.645Z,12.77
2023-05-21T03:24:45.403Z,10.53
2023-05-21T03:27:13.345Z,10.27
2023-05-21T03:29:40.216Z,11.93
2023-05-21T03:32:08.317Z,12.67
2023-05-21T03:34:36.127Z,13.27
2023-05-21T03:37:03.410Z,10.53
2023-05-21T03:39:31.518Z,11.00
2023-05-21T03:41:59.519Z,12.80
2023-05-21T03:44:39.606Z,13.87
2023-05-21T03:47:25.009Z,12.53
2023-05-21T03:49:53.416Z,13.27
2023-05-21T03:52:20.194Z,11.97
2023-05-21T03:54:47.135Z,9.87
2023-05-21T03:57:13.918Z,12.80
2023-05-21T03:59:41.022Z,16.17
2023-05-21T04:02:07.932Z,17.47
2023-05-21T04:04:35.062Z,16.40
2023-05-21T04:07:02.141Z,14.17
2023-05-21T04:09:29.328Z,15.00
2023-05-21T04:11:56.212Z,16.47
2023-05-21T04:14:23.661Z,14.07
2023-05-21T04:16:52.251Z,10.53
2023-05-21T04:19:52.632Z,13.20
2023-05-21T04:22:19.708Z,10.30
2023-05-21T04:24:46.870Z,14.87
2023-05-21T04:27:19.432Z,13.97
2023-05-21T04:29:46.757Z,13.83
2023-05-21T04:32:15.358Z,15.93
2023-05-21T04:34:43.084Z,12.83
2023-05-21T04:37:10.420Z,14.13
2023-05-21T04:39:37.299Z,10.63
2023-05-21T04:42:04.472Z,12.53
2023-05-21T04:44:31.324Z,12.57
2023-05-21T04:47:00.743Z,14.97
2023-05-21T04:49:27.580Z,16.27
2023-05-21T04:51:54.543Z,15.23
2023-05-21T04:54:22.217Z,11.47
2023-05-21T04:56:50.298Z,13.83
2023-05-21T04:59:17.617Z,11.80
2023-05-21T05:01:44.570Z,11.80
2023-05-21T05:04:11.468Z,10.50
2023-05-21T05:06:38.371Z,10.13
2023-05-21T05:09:05.728Z,13.13
2023-05-21T05:11:32.793Z,10.33
2023-05-21T05:13:59.638Z,8.97
2023-05-21T05:16:26.918Z,9.23
2023-05-21T05:18:56.473Z,11.23
2023-05-21T05:21:24.200Z,10.97
2023-05-21T05:23:51.286Z,11.30
2023-05-21T05:26:21.792Z,11.47
2023-05-21T05:28:49.315Z,9.37
2023-05-21T05:31:16.560Z,12.73
2023-05-21T05:33:44.087Z,9.57
2023-05-21T05:36:11.935Z,22.50
2023-05-21T05:38:38.999Z,10.03
2023-05-21T05:41:05.921Z,9.20
2023-05-21T05:43:32.838Z,8.97
2023-05-21T05:46:01.534Z,9.83
2023-05-21T05:48:28.749Z,11.77
2023-05-21T05:50:57.338Z,9.20
2023-05-21T05:53:26.103Z,8.23
2023-05-21T05:55:53.498Z,10.33
2023-05-21T05:58:20.557Z,8.73
2023-05-21T06:00:57.594Z,11.00
2023-05-21T06:03:25.437Z,10.87
2023-05-21T06:05:53.677Z,10.50
2023-05-21T06:08:20.790Z,12.60
2023-05-21T06:10:47.686Z,10.77
2023-05-21T06:13:15.111Z,8.30
2023-05-21T06:15:44.789Z,9.67
2023-05-21T06:18:11.920Z,10.63
2023-05-21T06:20:38.888Z,7.40
2023-05-21T06:23:07.514Z,8.67
2023-05-21T06:25:35.063Z,10.07
2023-05-21T06:28:02.342Z,11.57
2023-05-21T06:30:30.810Z,8.37
2023-05-21T06:32:58.876Z,9.27
2023-05-21T06:35:25.829Z,10.13
2023-05-21T06:37:52.699Z,9.27
2023-05-21T06:40:20.830Z,8.03
2023-05-21T06:42:48.423Z,7.90
2023-05-21T06:45:33.843Z,10.73
2023-05-21T06:48:08.212Z,6.77
2023-05-21T06:50:36.155Z,9.53
2023-05-21T06:53:03.389Z,7.63
2023-05-21T06:55:30.334Z,7.83
2023-05-21T06:58:12.871Z,9.40
2023-05-21T07:00:39.767Z,6.60
2023-05-21T07:03:07.485Z,7.73
2023-05-21T07:05:35.475Z,6.50
2023-05-21T07:08:02.483Z,7.07
2023-05-21T07:10:29.695Z,6.93
2023-05-21T07:12:57.630Z,7.00
2023-05-21T07:15:24.618Z,10.23
2023-05-21T07:17:51.643Z,5.63
2023-05-21T07:20:19.345Z,9.97
2023-05-21T07:22:49.292Z,7.03
2023-05-21T07:25:17.404Z,8.67
2023-05-21T07:27:44.596Z,8.43
2023-05-21T07:30:11.645Z,6.87
2023-05-21T07:32:38.584Z,7.07
2023-05-21T07:35:05.678Z,14.43
2023-05-21T07:37:32.795Z,5.40
2023-05-21T07:39:59.836Z,5.67
2023-05-21T07:42:26.978Z,8.87
2023-05-21T07:44:56.172Z,6.53
2023-05-21T07:47:25.071Z,6.83
2023-05-21T07:49:52.214Z,5.50
2023-05-21T07:52:19.079Z,8.17
2023-05-21T07:54:46.104Z,7.70
2023-05-21T07:57:13.118Z,7.97
2023-05-21T08:00:00.970Z,7.13
2023-05-21T08:02:30.407Z,5.30
2023-05-21T08:04:57.931Z,9.37
2023-05-21T08:07:25.391Z,6.17
2023-05-21T08:09:54.255Z,4.47
2023-05-21T08:12:21.286Z,8.13
2023-05-21T08:14:48.548Z,4.83
2023-05-21T08:17:16.501Z,5.63
2023-05-21T08:19:43.959Z,5.97
2023-05-21T08:22:11.205Z,5.83
2023-05-21T08:24:41.571Z,7.93
2023-05-21T08:27:08.534Z,7.50
2023-05-21T08:29:35.562Z,6.53
2023-05-21T08:32:04.994Z,7.97
2023-05-21T08:34:31.994Z,6.80
2023-05-21T08:37:18.727Z,4.33
2023-05-21T08:40:06.586Z,7.67
2023-05-21T08:42:48.889Z,6.10
2023-05-21T08:45:38.811Z,3.67
2023-05-21T08:48:06.705Z,8.07
2023-05-21T08:50:35.359Z,7.43
2023-05-21T08:53:16.042Z,6.17
2023-05-21T08:55:52.763Z,13.00
2023-05-21T08:58:20.543Z,5.30
2023-05-21T09:00:47.497Z,6.77
2023-05-21T09:03:15.186Z,3.80
2023-05-21T09:05:44.359Z,6.57
2023-05-21T09:08:14.824Z,9.57
2023-05-21T09:11:07.605Z,5.40
2023-05-21T09:13:41.195Z,7.87
2023-05-21T09:16:14.298Z,8.57
2023-05-21T09:18:41.697Z,5.00
2023-05-21T09:21:23.794Z,5.10
2023-05-21T09:23:57.666Z,5.30
2023-05-21T09:26:25.124Z,5.17
2023-05-21T09:28:59.610Z,8.77
2023-05-21T09:31:29.716Z,4.07
2023-05-21T09:33:56.762Z,5.83
2023-05-21T09:36:25.474Z,7.13
2023-05-21T09:38:53.793Z,5.53
2023-05-21T09:41:22.320Z,7.17
2023-05-21T09:43:49.714Z,7.23
2023-05-21T09:46:20.935Z,11.43
2023-05-21T09:48:47.889Z,7.77
2023-05-21T09:51:17.927Z,4.70
2023-05-21T09:53:54.760Z,6.53
2023-05-21T09:56:25.441Z,4.20
2023-05-21T09:58:54.929Z,3.70
2023-05-21T10:01:21.978Z,5.13
2023-05-21T10:03:59.238Z,3.23
2023-05-21T10:06:30.087Z,4.73
2023-05-21T10:08:57.624Z,5.00
2023-05-21T10:11:26.650Z,10.40
2023-05-21T10:13:56.883Z,8.63
2023-05-21T10:16:24.450Z,4.83
2023-05-21T10:18:54.405Z,6.97
2023-05-21T10:21:24.415Z,7.67
2023-05-21T10:23:51.833Z,4.80
2023-05-21T10:26:20.481Z,6.10
2023-05-21T10:28:47.437Z,4.60
2023-05-21T10:31:14.465Z,5.33
2023-05-21T10:33:42.396Z,8.57
2023-05-21T10:36:10.249Z,5.60
2023-05-21T10:38:38.237Z,5.60
2023-05-21T10:41:06.900Z,5.87
2023-05-21T10:43:52.518Z,3.60
2023-05-21T10:46:25.315Z,7.97
2023-05-21T10:49:04.586Z,6.43
2023-05-21T10:51:49.993Z,6.37
2023-05-21T10:54:16.925Z,8.13
2023-05-21T10:57:02.660Z,5.40
2023-05-21T10:59:29.582Z,8.93
2023-05-21T11:01:57.209Z,4.20
2023-05-21T11:04:27.068Z,7.60
2023-05-21T11:06:54.571Z,5.40
2023-05-21T11:09:21.432Z,7.80
2023-05-21T11:11:52.017Z,3.73
2023-05-21T11:14:39.717Z,5.83
2023-05-21T11:17:06.880Z,7.23
2023-05-21T11:19:41.544Z,4.60
2023-05-21T11:22:09.659Z,9.97
2023-05-21T11:24:41.521Z,5.10
2023-05-21T11:27:08.892Z,5.00
2023-05-21T11:29:43.367Z,4.53
2023-05-21T11:32:10.994Z,6.77
2023-05-21T11:34:39.752Z,5.40
2023-05-21T11:37:18.812Z,4.27
2023-05-21T11:39:46.054Z,7.03
2023-05-21T11:42:13.135Z,6.10
2023-05-21T11:44:40.576Z,10.73
2023-05-21T11:47:08.245Z,5.23
2023-05-21T11:49:36.065Z,5.03
2023-05-21T11:52:06.664Z,7.57
2023-05-21T11:54:37.724Z,10.70
2023-05-21T11:57:10.950Z,6.40
2023-05-21T11:59:38.098Z,7.43
2023-05-21T12:02:05.146Z,4.80
2023-05-21T12:04:36.588Z,6.17
2023-05-21T12:07:10.115Z,4.73
2023-05-21T12:09:47.073Z,5.43
2023-05-21T12:12:24.123Z,5.50
2023-05-21T12:14:51.949Z,5.57
2023-05-21T12:17:19.557Z,6.50
2023-05-21T12:19:47.105Z,9.67
2023-05-21T12:22:16.612Z,6.87
2023-05-21T12:24:44.076Z,7.27
2023-05-21T12:27:13.252Z,7.67
2023-05-21T12:29:42.684Z,8.30
2023-05-21T12:32:14.641Z,4.23
2023-05-21T12:34:45.869Z,4.87
2023-05-21T12:37:15.192Z,5.47
2023-05-21T12:39:45.645Z,5.47
2023-05-21T12:42:12.840Z,4.20
2023-05-21T12:44:43.949Z,6.70
2023-05-21T12:47:11.186Z,5.90
2023-05-21T12:49:39.977Z,5.13
2023-05-21T12:52:11.407Z,5.23
2023-05-21T12:54:43.226Z,5.70
2023-05-21T12:57:17.473Z,5.23
2023-05-21T12:59:57.677Z,7.23
2023-05-21T13:02:26.651Z,4.27
2023-05-21T13:04:57.592Z,4.73
2023-05-21T13:07:28.601Z,6.43
2023-05-21T13:09:55.871Z,5.17
2023-05-21T13:12:23.520Z,4.00
2023-05-21T13:14:51.232Z,6.97
2023-05-21T13:17:18.869Z,4.67
2023-05-21T13:20:05.200Z,5.90
2023-05-21T13:22:32.128Z,5.83
2023-05-21T13:24:59.013Z,5.17
2023-05-21T13:27:25.912Z,5.07
2023-05-21T13:29:52.844Z,4.17
2023-05-21T13:32:19.809Z,6.20
2023-05-21T13:34:48.144Z,4.70
2023-05-21T13:37:15.148Z,5.70
2023-05-21T13:39:42.034Z,4.20
2023-05-21T13:42:08.813Z,5.30
2023-05-21T13:44:36.850Z,7.80
2023-05-21T13:47:04.120Z,6.07
2023-05-21T13:49:31.136Z,6.73
2023-05-21T13:51:58.483Z,5.07
2023-05-21T13:54:25.370Z,5.10
2023-05-21T13:56:52.213Z,5.57
2023-05-21T13:59:19.268Z,6.03
2023-05-21T14:01:46.683Z,6.53
2023-05-21T14:04:14.011Z,5.30
2023-05-21T14:06:41.384Z,4.53
2023-05-21T14:09:08.801Z,6.83
2023-05-21T14:11:36.082Z,10.63
2023-05-21T14:14:03.169Z,6.60
2023-05-21T14:16:30.171Z,4.57
2023-05-21T14:18:57.463Z,6.50
2023-05-21T14:21:24.908Z,5.60
2023-05-21T14:23:52.105Z,5.30
2023-05-21T14:26:18.929Z,7.60
2023-05-21T14:28:46.487Z,8.63
2023-05-21T14:31:13.302Z,5.20
2023-05-21T14:33:40.195Z,5.17
2023-05-21T14:36:07.153Z,8.17
2023-05-21T14:38:34.246Z,10.10
2023-05-21T14:41:01.062Z,6.33
2023-05-21T14:43:27.982Z,7.07
2023-05-21T14:45:55.918Z,5.60
2023-05-21T14:48:24.859Z,6.50
2023-05-21T14:50:52.428Z,5.27
2023-05-21T14:53:19.806Z,4.90
2023-05-21T14:55:47.038Z,5.70
2023-05-21T14:58:14.083Z,6.63
2023-05-21T15:00:40.984Z,9.63
2023-05-21T15:03:07.994Z,5.20
2023-05-21T15:05:36.255Z,3.80
2023-05-21T15:08:04.645Z,8.07
2023-05-21T15:10:31.900Z,8.77
2023-05-21T15:12:58.750Z,6.47
2023-05-21T15:15:25.598Z,7.13
2023-05-21T15:17:52.643Z,10.67
2023-05-21T15:20:19.753Z,7.07
2023-05-21T15:22:47.051Z,5.17
2023-05-21T15:25:14.570Z,6.13
2023-05-21T15:27:41.465Z,5.57
2023-05-21T15:30:08.616Z,6.57
2023-05-21T15:32:35.704Z,6.30
2023-05-21T15:35:02.692Z,9.30
2023-05-21T15:37:32.405Z,8.10
2023-05-21T15:39:59.547Z,6.77
2023-05-21T15:42:26.379Z,10.63
2023-05-21T15:44:53.310Z,6.90
2023-05-21T15:47:20.216Z,6.10
2023-05-21T15:49:47.081Z,4.67
2023-05-21T15:52:14.043Z,4.33
2023-05-21T15:54:40.834Z,9.07
2023-05-21T15:57:07.663Z,4.67
2023-05-21T15:59:34.606Z,6.60
2023-05-21T16:02:01.859Z,6.20
2023-05-21T16:04:28.786Z,8.23
2023-05-21T16:06:55.677Z,4.30
2023-05-21T16:09:22.528Z,8.23
2023-05-21T16:11:49.415Z,11.77
2023-05-21T16:14:16.352Z,11.20
2023-05-21T16:16:43.173Z,6.37
2023-05-21T16:19:10.147Z,8.63
2023-05-21T16:21:37.011Z,8.53
2023-05-21T16:24:04.210Z,5.53
2023-05-21T16:26:31.231Z,5.63
2023-05-21T16:28:58.879Z,10.50
2023-05-21T16:31:25.780Z,9.30
2023-05-21T16:33:53.066Z,9.27
2023-05-21T16:36:19.919Z,6.10
2023-05-21T16:38:46.760Z,7.13
2023-05-21T16:41:14.044Z,5.03
2023-05-21T16:43:41.036Z,9.30
2023-05-21T16:46:07.890Z,9.90
2023-05-21T16:48:37.364Z,8.13
2023-05-21T16:51:04.971Z,7.87
2023-05-21T16:53:32.149Z,9.40
2023-05-21T16:55:59.119Z,7.87
2023-05-21T16:58:25.901Z,7.37
2023-05-21T17:00:52.769Z,9.83
2023-05-21T17:03:19.989Z,5.20
2023-05-21T17:05:46.842Z,9.17
2023-05-21T17:08:13.760Z,6.03
2023-05-21T17:10:40.681Z,5.77
2023-05-21T17:13:20.773Z,9.10
2023-05-21T17:15:48.907Z,6.67
2023-05-21T17:18:15.862Z,6.00
2023-05-21T17:20:43.934Z,9.23
2023-05-21T17:23:12.117Z,5.83
2023-05-21T17:25:39.869Z,8.03
2023-05-21T17:28:07.060Z,14.00
2023-05-21T17:30:34.085Z,8.87
2023-05-21T17:33:03.817Z,10.70
2023-05-21T17:35:30.815Z,8.27
2023-05-21T17:37:57.757Z,5.67
2023-05-21T17:40:25.220Z,5.73
2023-05-21T17:42:52.587Z,7.13
2023-05-21T17:45:19.756Z,6.20
2023-05-21T17:47:46.632Z,4.83
2023-05-21T17:50:13.749Z,12.97
2023-05-21T17:52:40.681Z,9.10
2023-05-21T17:55:08.051Z,8.67
2023-05-21T17:57:36.077Z,9.20
2023-05-21T18:00:04.737Z,11.20
2023-05-21T18:02:38.730Z,11.33
2023-05-21T18:05:05.872Z,8.87
2023-05-21T18:07:32.788Z,10.30
2023-05-21T18:09:59.691Z,7.07
2023-05-21T18:12:26.555Z,7.53
2023-05-21T18:14:53.820Z,5.13
2023-05-21T18:17:20.767Z,5.10
2023-05-21T18:19:47.533Z,9.47
2023-05-21T18:22:14.862Z,6.10
2023-05-21T18:24:41.705Z,7.57
2023-05-21T18:27:08.643Z,7.73
2023-05-21T18:29:36.908Z,6.93
2023-05-21T18:32:04.272Z,7.30
2023-05-21T18:34:31.393Z,9.20
2023-05-21T18:36:58.924Z,5.97
2023-05-21T18:39:27.963Z,8.53
2023-05-21T18:42:11.442Z,13.57
2023-05-21T18:44:40.073Z,8.67
2023-05-21T18:47:09.287Z,7.37
2023-05-21T18:49:36.490Z,10.63
2023-05-21T18:52:04.057Z,8.37
2023-05-21T18:54:31.004Z,14.07
2023-05-21T18:57:00.484Z,31.90
2023-05-21T18:59:28.193Z,41.70
2023-05-21T19:01:55.179Z,54.03
2023-05-21T19:04:22.111Z,45.50
2023-05-21T19:06:48.994Z,29.23
2023-05-21T19:09:16.154Z,27.60
2023-05-21T19:11:43.245Z,19.43
2023-05-21T19:14:10.052Z,20.87
2023-05-21T19:16:37.017Z,16.27
2023-05-21T19:19:04.493Z,15.53
2023-05-21T19:21:31.689Z,17.53
2023-05-21T19:23:58.872Z,11.07
2023-05-21T19:26:26.172Z,10.37
2023-05-21T19:28:54.656Z,11.40
2023-05-21T19:31:25.417Z,11.60
2023-05-21T19:33:52.854Z,12.87
2023-05-21T19:36:20.525Z,13.60
2023-05-21T19:38:48.431Z,15.33
2023-05-21T19:41:18.981Z,18.70
2023-05-21T19:43:46.272Z,14.37
2023-05-21T19:46:13.553Z,16.87
2023-05-21T19:48:41.205Z,14.50
2023-05-21T19:51:08.063Z,13.73
2023-05-21T19:53:35.065Z,17.23
2023-05-21T19:56:02.081Z,14.50
2023-05-21T19:58:30.493Z,28.17
2023-05-21T20:00:59.394Z,21.17
2023-05-21T20:03:27.084Z,19.30
2023-05-21T20:05:54.380Z,20.13
2023-05-21T20:08:21.547Z,17.37
2023-05-21T20:10:51.457Z,14.80
2023-05-21T20:13:18.939Z,14.47
2023-05-21T20:15:45.865Z,18.53
2023-05-21T20:18:13.091Z,12.97
2023-05-21T20:20:41.599Z,13.70
2023-05-21T20:23:08.854Z,13.83
2023-05-21T20:25:35.686Z,10.73
2023-05-21T20:28:03.750Z,10.00
2023-05-21T20:30:34.453Z,12.53
2023-05-21T20:33:02.218Z,9.83
2023-05-21T20:35:29.155Z,9.77
2023-05-21T20:37:56.150Z,13.17
2023-05-21T20:40:23.087Z,10.10
2023-05-21T20:42:52.059Z,9.00
2023-05-21T20:45:19.129Z,9.37
2023-05-21T20:47:48.050Z,8.07
2023-05-21T20:50:17.814Z,9.80
2023-05-21T20:52:47.278Z,7.17
2023-05-21T20:55:14.829Z,9.00
2023-05-21T20:57:42.343Z,7.83
2023-05-21T21:00:13.014Z,7.80
2023-05-21T21:02:40.855Z,5.77
2023-05-21T21:05:10.687Z,9.50
2023-05-21T21:07:37.888Z,8.80
2023-05-21T21:10:05.158Z,10.07
2023-05-21T21:12:31.986Z,9.73
2023-05-21T21:14:58.903Z,7.03
2023-05-21T21:17:25.876Z,9.70
2023-05-21T21:19:52.789Z,6.30
2023-05-21T21:22:19.642Z,8.10
2023-05-21T21:24:47.284Z,8.50
2023-05-21T21:27:14.129Z,9.17
2023-05-21T21:29:40.958Z,7.60
2023-05-21T21:32:08.642Z,6.07
2023-05-21T21:34:35.477Z,9.83
2023-05-21T21:37:02.330Z,8.40
2023-05-21T21:39:29.152Z,11.33
2023-05-21T21:41:56.172Z,9.43
2023-05-21T21:44:22.980Z,8.33
2023-05-21T21:46:49.880Z,7.80
2023-05-21T21:49:19.710Z,11.00
2023-05-21T21:51:46.656Z,7.33
2023-05-21T21:54:13.439Z,7.87
2023-05-21T21:56:40.946Z,9.10
2023-05-21T21:59:07.823Z,9.40
2023-05-21T22:01:35.937Z,7.43
2023-05-21T22:04:02.897Z,5.77
2023-05-21T22:06:30.140Z,6.80
2023-05-21T22:08:56.994Z,6.10
2023-05-21T22:11:24.069Z,6.10
2023-05-21T22:13:50.882Z,10.43
2023-05-21T22:16:17.808Z,6.83
2023-05-21T22:18:45.171Z,6.17
2023-05-21T22:21:14.515Z,7.87
2023-05-21T22:23:41.515Z,8.27
2023-05-21T22:26:09.296Z,7.10
2023-05-21T22:28:36.282Z,8.17
2023-05-21T22:31:03.851Z,7.07
2023-05-21T22:33:30.872Z,12.13
2023-05-21T22:35:58.290Z,6.57
2023-05-21T22:38:25.266Z,9.63
2023-05-21T22:40:52.050Z,5.90
2023-05-21T22:43:19.103Z,21.37
2023-05-21T22:45:45.988Z,14.40
2023-05-21T22:48:12.828Z,8.93
2023-05-21T22:50:39.917Z,8.37
2023-05-21T22:53:07.105Z,10.00
2023-05-21T22:55:34.002Z,8.87
2023-05-21T22:58:00.858Z,5.70
2023-05-21T23:00:27.676Z,8.87
2023-05-21T23:02:55.046Z,7.93
2023-05-21T23:05:22.380Z,5.20
2023-05-21T23:07:49.506Z,8.07
2023-05-21T23:10:16.369Z,3.73
2023-05-21T23:12:43.367Z,5.93
2023-05-21T23:15:11.006Z,5.87
2023-05-21T23:17:38.276Z,9.30
2023-05-21T23:20:07.579Z,17.07
2023-05-21T23:22:34.831Z,8.73
2023-05-21T23:25:01.761Z,5.73
2023-05-21T23:27:29.491Z,6.93
2023-05-21T23:29:56.661Z,6.83
2023-05-21T23:32:23.776Z,4.87
2023-05-21T23:34:51.160Z,5.27
2023-05-21T23:37:18.043Z,5.77
2023-05-21T23:39:49.851Z,6.73
2023-05-21T23:42:17.410Z,4.93
2023-05-21T23:44:44.566Z,5.93
2023-05-21T23:47:11.489Z,7.20
2023-05-21T23:49:39.127Z,7.57
2023-05-21T23:52:06.253Z,5.87
2023-05-21T23:54:33.133Z,7.63
2023-05-21T23:56:59.982Z,4.73
2023-05-21T23:59:26.891Z,7.43
